Time;durP1;ratioP1;P1;durP2;ratioP2;P2;SDS_P1;SDS_P2;PMS_P1;PMS_P2;Temp;Humidity;BMP_temperature;BMP_pressure;BME280_temperature;BME280_humidity;BME280_pressure;Samples;Min_cycle;Max_cycle;Signal;HPM_P1;HPM_P2
2023/12/16 05:12:48;;;;;;;1.87;0.90;;;;;;;;;;20663314;28;20235;-70
2023/12/16 05:22:49;;;;;;;2.63;1.23;;;;;;;;;;20648583;28;20282;-69
2023/12/16 05:32:52;;;;;;;1.70;1.03;;;;;;;;;;20649915;28;20236;-70
2023/12/16 05:42:54;;;;;;;1.67;1.00;;;;;;;;;;20681277;28;20227;-71
2023/12/16 05:52:56;;;;;;;1.60;1.07;;;;;;;;;;20616927;28;20293;-69
2023/12/16 06:02:58;;;;;;;1.67;0.90;;;;;;;;;;20631501;28;20251;-69
2023/12/16 06:12:59;;;;;;;2.10;1.20;;;;;;;;;;20662816;23;20758;-83
2023/12/16 06:23:01;;;;;;;1.85;0.90;;;;;;;;;;20708751;28;20239;-85
2023/12/16 06:33:03;;;;;;;2.17;1.10;;;;;;;;;;20646664;28;20262;-85
2023/12/16 06:43:05;;;;;;;3.03;0.83;;;;;;;;;;20625931;28;20212;-83
2023/12/16 06:53:07;;;;;;;1.73;1.03;;;;;;;;;;20632801;28;20616;-84
2023/12/16 07:03:09;;;;;;;1.13;0.80;;;;;;;;;;20644586;28;20208;-85
2023/12/16 07:13:10;;;;;;;2.37;0.90;;;;;;;;;;20662204;28;20208;-84
2023/12/16 07:23:12;;;;;;;2.47;1.13;;;;;;;;;;20633133;28;20277;-84
2023/12/16 07:33:14;;;;;;;3.13;0.93;;;;;;;;;;20628147;28;20211;-85
2023/12/16 07:43:16;;;;;;;1.93;1.10;;;;;;;;;;20639153;28;20212;-85
2023/12/16 07:53:20;;;;;;;1.60;1.00;;;;;;;;;;20641299;28;20227;-87
2023/12/16 08:03:22;;;;;;;2.77;1.10;;;;;;;;;;20625643;28;20246;-86
2023/12/16 08:13:23;;;;;;;2.30;0.97;;;;;;;;;;20610047;28;20694;-85
2023/12/16 08:23:25;;;;;;;1.30;0.80;;;;;;;;;;20648659;28;20208;-84
2023/12/16 08:33:27;;;;;;;6.93;1.37;;;;;;;;;;20625549;28;20254;-84
2023/12/16 08:43:29;;;;;;;1.90;1.00;;;;;;;;;;20650037;28;20224;-85
2023/12/16 08:53:33;;;;;;;3.80;1.60;;;;;;;;;;20620898;28;20216;-85
2023/12/16 09:03:36;;;;;;;2.60;1.00;;;;;;;;;;20642693;28;20227;-85
2023/12/16 09:13:38;;;;;;;3.53;1.10;;;;;;;;;;20644497;28;20696;-85
2023/12/16 09:23:40;;;;;;;1.87;1.20;;;;;;;;;;20678254;28;20680;-86
2023/12/16 09:33:42;;;;;;;4.57;2.10;;;;;;;;;;20686915;28;20207;-86
2023/12/16 09:44:09;;;;;;;3.73;1.83;;;;;;;;;;20647360;28;20247;-85
2023/12/16 09:54:35;;;;;;;3.83;1.60;;;;;;;;;;20645465;28;20211;-85
2023/12/16 10:04:39;;;;;;;5.03;1.23;;;;;;;;;;20657064;28;20704;-86
2023/12/16 10:14:47;;;;;;;3.13;1.50;;;;;;;;;;20640543;28;20247;-86
2023/12/16 10:24:49;;;;;;;2.57;1.30;;;;;;;;;;20651043;28;20277;-86
2023/12/16 10:34:51;;;;;;;1.83;0.90;;;;;;;;;;20634424;28;20228;-85
2023/12/16 10:44:53;;;;;;;2.23;0.63;;;;;;;;;;20658152;28;20240;-85
2023/12/16 10:55:02;;;;;;;1.97;0.70;;;;;;;;;;20621550;28;20208;-84
2023/12/16 11:05:07;;;;;;;2.33;0.60;;;;;;;;;;20661642;28;20223;-85
2023/12/16 11:15:10;;;;;;;3.93;0.80;;;;;;;;;;20620239;28;20291;-86
2023/12/16 11:25:18;;;;;;;3.47;0.70;;;;;;;;;;20628677;28;20239;-86
2023/12/16 11:35:36;;;;;;;2.40;0.83;;;;;;;;;;20640331;28;20270;-86
2023/12/16 11:45:40;;;;;;;1.30;0.73;;;;;;;;;;20653212;28;20248;-85
2023/12/16 11:55:42;;;;;;;1.80;0.50;;;;;;;;;;20625756;28;20747;-87
2023/12/16 12:05:44;;;;;;;3.27;0.87;;;;;;;;;;20622550;28;20250;-85
2023/12/16 12:15:45;;;;;;;3.17;0.60;;;;;;;;;;20655575;28;20219;-85
2023/12/16 12:25:56;;;;;;;1.53;0.67;;;;;;;;;;20663007;28;20281;-86
2023/12/16 12:35:59;;;;;;;1.47;0.40;;;;;;;;;;20664407;28;20227;-85
2023/12/16 12:46:16;;;;;;;2.93;0.83;;;;;;;;;;20653372;28;20232;-85
2023/12/16 12:56:19;;;;;;;3.67;0.60;;;;;;;;;;20668198;28;20200;-85
2023/12/16 13:06:20;;;;;;;3.23;1.03;;;;;;;;;;20645654;28;20274;-86
2023/12/16 13:16:22;;;;;;;1.20;0.60;;;;;;;;;;20618822;28;20200;-86
2023/12/16 13:26:24;;;;;;;1.37;0.70;;;;;;;;;;20669218;28;20215;-86
2023/12/16 13:36:27;;;;;;;1.00;0.50;;;;;;;;;;20648922;28;20228;-84
2023/12/16 13:46:30;;;;;;;2.23;0.60;;;;;;;;;;20664275;28;20227;-85
2023/12/16 13:56:32;;;;;;;1.83;0.70;;;;;;;;;;20653071;28;20234;-85
2023/12/16 14:06:34;;;;;;;2.00;0.50;;;;;;;;;;20647572;28;20361;-85
2023/12/16 14:16:36;;;;;;;1.33;0.60;;;;;;;;;;20651270;28;20256;-85
2023/12/16 14:26:38;;;;;;;1.10;0.43;;;;;;;;;;20630990;28;20676;-85
2023/12/16 14:36:39;;;;;;;0.90;0.40;;;;;;;;;;20665026;28;20270;-84
2023/12/16 14:46:41;;;;;;;1.70;0.50;;;;;;;;;;20635532;28;20723;-84
2023/12/16 14:56:43;;;;;;;3.33;1.27;;;;;;;;;;20626580;28;20236;-85
2023/12/16 15:06:44;;;;;;;1.73;0.70;;;;;;;;;;20649177;28;20605;-83
2023/12/16 15:16:46;;;;;;;1.90;0.67;;;;;;;;;;20626086;28;20215;-85
2023/12/16 15:26:48;;;;;;;0.90;0.60;;;;;;;;;;20637526;28;20295;-83
2023/12/16 15:36:50;;;;;;;1.10;0.60;;;;;;;;;;20628049;28;20223;-84
2023/12/16 15:46:52;;;;;;;1.57;0.60;;;;;;;;;;20648589;28;20212;-83
2023/12/16 15:56:54;;;;;;;2.20;0.70;;;;;;;;;;20638971;28;20251;-84
2023/12/16 16:06:56;;;;;;;1.27;0.40;;;;;;;;;;20684225;28;20254;-84
2023/12/16 16:16:58;;;;;;;2.87;0.80;;;;;;;;;;20686562;28;20231;-83
2023/12/16 16:27:00;;;;;;;3.33;1.33;;;;;;;;;;20670303;28;20254;-84
2023/12/16 16:37:01;;;;;;;3.87;0.90;;;;;;;;;;20666968;28;20270;-84
2023/12/16 16:47:03;;;;;;;2.57;1.03;;;;;;;;;;20663748;28;20224;-84
2023/12/16 16:57:05;;;;;;;2.53;1.20;;;;;;;;;;20662433;28;20270;-83
2023/12/16 17:07:07;;;;;;;2.23;0.90;;;;;;;;;;20680209;28;20219;-83
2023/12/16 17:17:09;;;;;;;2.80;1.10;;;;;;;;;;20663439;28;20290;-84
2023/12/16 17:27:15;;;;;;;1.87;0.83;;;;;;;;;;20634034;28;20270;-85
2023/12/16 17:37:17;;;;;;;3.50;1.10;;;;;;;;;;20684607;28;20243;-85
2023/12/16 17:47:19;;;;;;;3.73;1.03;;;;;;;;;;20690106;28;20232;-85
2023/12/16 17:57:21;;;;;;;2.63;1.10;;;;;;;;;;20548550;28;21025;-85
2023/12/16 18:07:23;;;;;;;7.83;2.10;;;;;;;;;;20469231;28;20349;-86
2023/12/16 18:17:25;;;;;;;2.13;1.20;;;;;;;;;;20584517;28;20533;-86
2023/12/16 18:27:27;;;;;;;2.27;1.37;;;;;;;;;;20676123;28;20247;-86
2023/12/16 18:37:29;;;;;;;2.97;1.50;;;;;;;;;;20635832;28;20224;-84
2023/12/16 18:47:31;;;;;;;3.03;1.50;;;;;;;;;;20480131;28;20216;-84
2023/12/16 18:57:33;;;;;;;3.73;1.40;;;;;;;;;;20477116;28;20206;-84
2023/12/16 19:07:34;;;;;;;4.80;1.93;;;;;;;;;;20656831;28;20278;-84
2023/12/16 19:17:36;;;;;;;5.37;2.67;;;;;;;;;;20660827;28;23406;-84
2023/12/16 19:27:43;;;;;;;4.50;2.07;;;;;;;;;;20695091;28;20236;-84
2023/12/16 19:37:45;;;;;;;3.63;1.77;;;;;;;;;;20570664;28;20228;-84
2023/12/16 19:47:47;;;;;;;3.37;1.70;;;;;;;;;;20661725;28;20246;-84
2023/12/16 19:57:49;;;;;;;2.93;1.37;;;;;;;;;;20658582;28;20732;-84
2023/12/16 20:07:50;;;;;;;2.27;1.00;;;;;;;;;;20645425;28;20282;-83
2023/12/16 20:17:53;;;;;;;5.30;1.30;;;;;;;;;;20675666;28;20274;-84
2023/12/16 20:27:54;;;;;;;2.17;1.03;;;;;;;;;;20662583;28;20324;-82
2023/12/16 20:37:59;;;;;;;2.73;1.13;;;;;;;;;;20696968;28;20292;-84
2023/12/16 20:48:01;;;;;;;4.90;1.97;;;;;;;;;;20638822;28;20588;-84
2023/12/16 20:58:03;;;;;;;2.43;1.30;;;;;;;;;;20684214;28;20207;-83
2023/12/16 21:08:05;;;;;;;2.70;1.20;;;;;;;;;;20716986;23;20223;-69
2023/12/16 21:18:06;;;;;;;2.00;1.30;;;;;;;;;;20743293;28;20223;-69
2023/12/16 21:28:08;;;;;;;2.23;1.23;;;;;;;;;;20703812;28;20294;-69
2023/12/16 21:38:12;;;;;;;2.27;1.37;;;;;;;;;;20676295;28;20223;-69
2023/12/16 21:48:14;;;;;;;2.10;1.20;;;;;;;;;;20691195;28;20227;-69
2023/12/16 21:58:16;;;;;;;2.27;1.30;;;;;;;;;;20683843;28;20572;-70
2023/12/16 22:08:18;;;;;;;1.87;1.27;;;;;;;;;;20704154;28;20280;-70
2023/12/16 22:18:20;;;;;;;2.07;1.47;;;;;;;;;;20705264;28;20227;-70
2023/12/16 22:28:25;;;;;;;4.03;1.40;;;4.20;99.90;;;;;;20674597;28;20296;-69
2023/12/16 22:38:27;;;;;;;3.17;1.80;;;;;;;;;;20724098;28;20215;-69
2023/12/16 22:48:29;;;;;;;3.43;1.27;;;;;;;;;;20706233;28;20215;-69
2023/12/16 22:58:30;;;;;;;3.00;1.43;;;;;;;;;;20684259;28;20208;-69
2023/12/16 23:08:32;;;;;;;2.40;1.43;;;;;;;;;;20698527;28;20207;-69
2023/12/16 23:18:34;;;;;;;1.70;1.23;;;;;;;;;;20703154;28;20207;-69
2023/12/16 23:28:36;;;;;;;2.13;1.40;;;;;;;;;;20711403;28;20219;-70
2023/12/16 23:38:38;;;;;;;3.93;2.20;;;;;;;;;;20668557;28;20211;-70
2023/12/16 23:48:41;;;;;;;3.57;1.87;;;;;;;;;;20719044;28;20261;-70
2023/12/16 23:58:43;;;;;;;3.33;1.70;;;;;;;;;;20675601;28;20220;-70
